createdAt,value
2023-11-26T00:00:02.086Z,1.97
2023-11-26T00:05:05.501Z,2.01
2023-11-26T00:10:10.560Z,2.03
2023-11-26T00:15:15.871Z,2.03
2023-11-26T00:20:18.806Z,2.04
2023-11-26T00:25:21.795Z,2.07
2023-11-26T00:30:26.125Z,2.11
2023-11-26T00:35:31.087Z,2.16
2023-11-26T00:40:34.014Z,2.20
2023-11-26T00:45:38.700Z,2.00
2023-11-26T00:50:41.602Z,1.99
2023-11-26T00:55:45.392Z,1.99
2023-11-26T01:00:50.195Z,2.02
2023-11-26T01:05:54.234Z,2.00
2023-11-26T01:10:57.159Z,1.99
2023-11-26T01:16:01.533Z,2.06
2023-11-26T01:21:06.099Z,2.08
2023-11-26T01:26:09.151Z,2.09
2023-11-26T01:31:13.472Z,2.09
2023-11-26T01:36:16.441Z,2.10
2023-11-26T01:41:19.647Z,2.02
2023-11-26T01:46:25.159Z,1.89
2023-11-26T01:51:32.057Z,1.85
2023-11-26T01:56:36.178Z,1.75
2023-11-26T02:01:42.900Z,1.64
2023-11-26T02:06:46.630Z,1.59
2023-11-26T02:11:50.065Z,1.57
2023-11-26T02:16:55.246Z,1.61
2023-11-26T02:21:58.938Z,1.58
2023-11-26T02:27:03.281Z,1.54
2023-11-26T02:32:07.994Z,1.53
2023-11-26T02:37:11.644Z,1.54
2023-11-26T02:42:16.218Z,1.56
2023-11-26T02:47:19.408Z,1.58
2023-11-26T02:52:22.431Z,1.56
2023-11-26T02:57:26.736Z,1.60
2023-11-26T03:02:36.243Z,1.61
2023-11-26T03:07:39.219Z,1.60
2023-11-26T03:13:08.424Z,1.64
2023-11-26T03:18:14.060Z,1.68
2023-11-26T03:23:17.352Z,1.68
2023-11-26T03:28:22.024Z,1.71
2023-11-26T03:33:26.309Z,1.76
2023-11-26T03:38:29.599Z,1.79
2023-11-26T03:43:34.773Z,1.79
2023-11-26T03:48:40.532Z,1.73
2023-11-26T03:53:44.029Z,1.74
2023-11-26T03:58:48.303Z,1.74
2023-11-26T04:03:51.248Z,1.77
2023-11-26T04:08:55.224Z,1.82
2023-11-26T04:14:00.440Z,1.87
2023-11-26T04:19:03.861Z,1.91
2023-11-26T04:24:08.829Z,1.93
2023-11-26T04:29:13.160Z,1.94
2023-11-26T04:34:17.078Z,1.94
2023-11-26T04:39:20.372Z,1.93
2023-11-26T04:44:24.669Z,1.95
2023-11-26T04:49:27.920Z,2.00
2023-11-26T04:54:32.388Z,2.02
2023-11-26T04:59:37.547Z,2.07
2023-11-26T05:04:41.364Z,2.13
2023-11-26T05:09:44.517Z,2.22
2023-11-26T05:14:48.776Z,2.26
2023-11-26T05:19:51.757Z,2.32
2023-11-26T05:24:54.692Z,2.36
2023-11-26T05:29:59.502Z,2.41
2023-11-26T05:35:09.859Z,2.46
2023-11-26T05:40:16.344Z,2.49
2023-11-26T05:45:20.621Z,2.48
2023-11-26T05:50:24.185Z,2.49
2023-11-26T05:55:27.081Z,2.53
2023-11-26T06:00:32.189Z,2.58
2023-11-26T06:05:35.911Z,2.63
2023-11-26T06:10:38.850Z,2.66
2023-11-26T06:15:43.603Z,2.67
2023-11-26T06:20:46.537Z,2.68
2023-11-26T06:25:49.428Z,2.69
2023-11-26T06:30:54.034Z,2.70
2023-11-26T06:35:57.430Z,2.70
2023-11-26T06:41:01.313Z,2.73
2023-11-26T06:46:06.673Z,2.74
2023-11-26T06:51:11.709Z,2.77
2023-11-26T06:56:15.022Z,2.78
2023-11-26T07:01:19.343Z,2.82
2023-11-26T07:06:22.683Z,2.86
2023-11-26T07:11:25.946Z,2.90
2023-11-26T07:16:32.008Z,2.94
2023-11-26T07:21:41.609Z,2.97
2023-11-26T07:26:44.526Z,2.99
2023-11-26T07:31:49.701Z,3.03
2023-11-26T07:36:53.332Z,3.08
2023-11-26T07:41:57.139Z,3.13
2023-11-26T07:47:03.616Z,3.18
2023-11-26T07:52:07.116Z,3.25
2023-11-26T07:57:10.277Z,3.31
2023-11-26T08:02:14.845Z,3.35
2023-11-26T08:07:19.313Z,3.45
2023-11-26T08:12:24.544Z,3.47
2023-11-26T08:17:30.702Z,3.50
2023-11-26T08:22:35.992Z,3.55
2023-11-26T08:27:39.081Z,3.59
2023-11-26T08:32:46.059Z,3.58
2023-11-26T08:37:49.377Z,3.63
2023-11-26T08:42:55.099Z,3.61
2023-11-26T08:48:00.109Z,3.51
2023-11-26T08:53:07.111Z,3.58
2023-11-26T08:58:10.335Z,3.56
2023-11-26T09:03:14.876Z,3.56
2023-11-26T09:08:18.563Z,3.59
2023-11-26T09:13:21.463Z,3.65
2023-11-26T09:18:27.015Z,3.81
2023-11-26T09:23:31.103Z,3.95
2023-11-26T09:28:35.391Z,4.05
2023-11-26T09:33:40.367Z,4.04
2023-11-26T09:38:43.378Z,4.23
2023-11-26T09:43:46.628Z,4.24
2023-11-26T09:48:53.350Z,4.37
2023-11-26T09:53:56.276Z,4.46
2023-11-26T09:59:00.225Z,4.43
2023-11-26T10:04:06.200Z,4.37
2023-11-26T10:09:18.664Z,4.35
2023-11-26T10:14:23.831Z,4.17
2023-11-26T10:19:29.192Z,4.21
2023-11-26T10:24:32.668Z,4.35
2023-11-26T10:29:44.192Z,4.33
2023-11-26T10:34:57.271Z,4.43
2023-11-26T10:40:00.903Z,4.51
2023-11-26T10:45:06.329Z,4.47
2023-11-26T10:50:13.043Z,4.39
2023-11-26T10:55:20.559Z,4.47
2023-11-26T11:00:26.544Z,4.34
2023-11-26T11:05:35.587Z,4.44
2023-11-26T11:10:49.285Z,4.53
2023-11-26T11:15:53.020Z,4.54
2023-11-26T11:21:06.379Z,4.46
2023-11-26T11:26:12.762Z,4.49
2023-11-26T11:31:16.747Z,4.47
2023-11-26T11:36:51.561Z,4.56
2023-11-26T11:42:10.968Z,4.53
2023-11-26T11:47:35.564Z,4.59
2023-11-26T11:52:41.544Z,4.64
2023-11-26T11:57:46.688Z,4.69
2023-11-26T12:02:51.213Z,4.64
2023-11-26T12:07:57.665Z,4.79
2023-11-26T12:13:02.416Z,4.81
2023-11-26T12:18:05.703Z,4.87
2023-11-26T12:23:10.263Z,4.94
2023-11-26T12:28:14.355Z,5.01
2023-11-26T12:33:18.322Z,5.01
2023-11-26T12:38:27.014Z,5.13
2023-11-26T12:43:45.747Z,5.11
2023-11-26T12:48:51.184Z,5.36
2023-11-26T12:53:56.187Z,5.47
2023-11-26T12:59:01.741Z,5.59
2023-11-26T13:04:06.314Z,5.72
2023-11-26T13:09:10.771Z,5.78
2023-11-26T13:14:21.657Z,5.66
2023-11-26T13:19:25.137Z,5.71
2023-11-26T13:24:28.425Z,5.73
2023-11-26T13:29:34.891Z,5.73
2023-11-26T13:34:38.358Z,5.58
2023-11-26T13:39:44.285Z,5.45
2023-11-26T13:44:48.976Z,5.42
2023-11-26T13:49:52.544Z,5.50
2023-11-26T13:54:56.097Z,5.42
2023-11-26T14:00:01.493Z,5.45
2023-11-26T14:05:11.450Z,5.50
2023-11-26T14:10:17.861Z,5.55
2023-11-26T14:15:22.884Z,5.55
2023-11-26T14:20:26.626Z,5.49
2023-11-26T14:25:30.306Z,5.35
2023-11-26T14:30:36.343Z,5.24
2023-11-26T14:35:40.044Z,5.23
2023-11-26T14:40:43.451Z,5.13
2023-11-26T14:45:48.152Z,5.10
2023-11-26T14:50:51.852Z,5.06
2023-11-26T14:55:55.748Z,5.05
2023-11-26T15:01:01.533Z,4.97
2023-11-26T15:06:05.721Z,4.98
2023-11-26T15:11:09.204Z,4.91
2023-11-26T15:16:14.213Z,4.85
2023-11-26T15:21:18.961Z,4.80
2023-11-26T15:26:23.360Z,4.75
2023-11-26T15:31:29.192Z,4.73
2023-11-26T15:36:32.815Z,4.70
2023-11-26T15:41:37.174Z,4.64
2023-11-26T15:46:42.052Z,4.63
2023-11-26T15:51:47.074Z,4.59
2023-11-26T15:56:53.972Z,4.56
2023-11-26T16:02:01.870Z,4.54
2023-11-26T16:07:08.846Z,4.54
2023-11-26T16:12:14.070Z,4.55
2023-11-26T16:17:27.158Z,4.50
2023-11-26T16:22:37.446Z,4.50
2023-11-26T16:27:40.707Z,4.48
2023-11-26T16:32:46.570Z,4.48
2023-11-26T16:37:50.178Z,4.48
2023-11-26T16:42:53.426Z,4.48
2023-11-26T16:47:58.371Z,4.48
2023-11-26T16:53:01.684Z,4.48
2023-11-26T16:58:05.023Z,4.47
2023-11-26T17:03:10.824Z,4.47
2023-11-26T17:08:14.131Z,4.45
2023-11-26T17:13:18.611Z,4.47
2023-11-26T17:18:24.652Z,4.44
2023-11-26T17:23:28.704Z,4.44
2023-11-26T17:28:33.643Z,4.44
2023-11-26T17:33:39.310Z,4.39
2023-11-26T17:38:42.977Z,4.38
2023-11-26T17:43:47.347Z,4.37
2023-11-26T17:48:53.169Z,4.39
2023-11-26T17:53:57.135Z,4.39
2023-11-26T17:59:01.927Z,4.40
2023-11-26T18:04:08.457Z,4.41
2023-11-26T18:09:12.672Z,4.39
2023-11-26T18:14:16.792Z,4.38
2023-11-26T18:19:23.755Z,4.36
2023-11-26T18:24:28.478Z,4.36
2023-11-26T18:29:31.784Z,4.36
2023-11-26T18:34:37.082Z,4.32
2023-11-26T18:39:41.855Z,4.31
2023-11-26T18:44:45.332Z,4.32
2023-11-26T18:49:50.191Z,4.28
2023-11-26T18:54:54.361Z,4.28
2023-11-26T18:59:58.152Z,4.28
2023-11-26T19:05:02.824Z,4.28
2023-11-26T19:10:08.520Z,4.24
2023-11-26T19:15:13.018Z,4.23
2023-11-26T19:20:18.047Z,4.18
2023-11-26T19:25:21.550Z,4.16
2023-11-26T19:30:24.614Z,4.14
2023-11-26T19:35:30.037Z,4.15
2023-11-26T19:40:34.375Z,4.16
2023-11-26T19:45:38.581Z,4.17
2023-11-26T19:50:43.782Z,4.20
2023-11-26T19:55:47.297Z,4.21
2023-11-26T20:00:51.180Z,4.18
2023-11-26T20:05:55.711Z,4.16
2023-11-26T20:10:59.229Z,4.13
2023-11-26T20:16:02.612Z,4.11
2023-11-26T20:21:09.253Z,4.11
2023-11-26T20:26:19.848Z,4.01
2023-11-26T20:31:24.056Z,3.96
2023-11-26T20:36:29.669Z,3.94
2023-11-26T20:41:33.203Z,3.91
2023-11-26T20:46:37.095Z,3.90
2023-11-26T20:51:42.745Z,3.86
2023-11-26T20:56:46.366Z,3.85
2023-11-26T21:01:49.790Z,3.82
2023-11-26T21:06:55.140Z,3.83
2023-11-26T21:11:58.596Z,3.85
2023-11-26T21:17:01.981Z,3.83
2023-11-26T21:22:06.796Z,3.80
2023-11-26T21:27:10.462Z,3.80
2023-11-26T21:32:14.897Z,3.75
2023-11-26T21:37:19.692Z,3.70
2023-11-26T21:42:22.650Z,3.71
2023-11-26T21:47:25.774Z,3.68
2023-11-26T21:52:30.135Z,3.64
2023-11-26T21:57:33.072Z,3.63
2023-11-26T22:02:36.178Z,3.63
2023-11-26T22:07:40.676Z,3.58
2023-11-26T22:12:43.612Z,3.58
2023-11-26T22:17:46.571Z,3.52
2023-11-26T22:22:51.084Z,3.52
2023-11-26T22:27:54.017Z,3.49
2023-11-26T22:32:57.049Z,3.46
2023-11-26T22:38:01.326Z,3.45
2023-11-26T22:43:04.287Z,3.43
2023-11-26T22:48:07.754Z,3.36
2023-11-26T22:53:12.947Z,3.34
2023-11-26T22:58:16.082Z,3.28
2023-11-26T23:03:19.170Z,3.28
2023-11-26T23:08:23.797Z,3.25
2023-11-26T23:13:28.936Z,3.24
2023-11-26T23:18:35.329Z,3.22
2023-11-26T23:23:49.137Z,3.23
2023-11-26T23:28:55.277Z,3.21
2023-11-26T23:33:58.326Z,3.22
2023-11-26T23:39:04.536Z,3.21
2023-11-26T23:44:08.471Z,3.23
2023-11-26T23:49:11.597Z,3.21
2023-11-26T23:54:16.906Z,3.19
2023-11-26T23:59:19.795Z,3.19
